Time;durP1;ratioP1;P1;durP2;ratioP2;P2;SDS_P1;SDS_P2;PMS_P1;PMS_P2;Temp;Humidity;BMP_temperature;BMP_pressure;BME280_temperature;BME280_humidity;BME280_pressure;Samples;Min_cycle;Max_cycle;Signal;HPM_P1;HPM_P2
2021/08/10 00:00:36;;;;;;;10.73;4.50;;;;;;;;;;5136194;27;20279;-81
2021/08/10 00:03:03;;;;;;;7.53;4.60;;;;;;;;;;5136281;27;20296;-82
2021/08/10 00:05:31;;;;;;;6.83;4.33;;;;;;;;;;5135716;27;20233;-82
2021/08/10 00:07:59;;;;;;;8.70;4.40;;;;;;;;;;5136077;27;20380;-81
2021/08/10 00:10:26;;;;;;;8.60;4.60;;;;;;;;;;5136108;27;20253;-82
2021/08/10 00:12:55;;;;;;;9.43;4.50;;;;;;;;;;5136264;27;20288;-82
2021/08/10 00:15:22;;;;;;;10.20;4.67;;;;;;;;;;5135960;27;20279;-81
2021/08/10 00:17:50;;;;;;;8.10;4.37;;;;;;;;;;5136219;27;20661;-82
2021/08/10 00:20:17;;;;;;;8.43;4.53;;;;;;;;;;5135869;27;20236;-82
2021/08/10 00:22:45;;;;;;;9.77;4.67;;;;;;;;;;5135895;27;20251;-82
2021/08/10 00:25:13;;;;;;;10.90;4.20;;;;;;;;;;5135932;27;20196;-81
2021/08/10 00:27:40;;;;;;;7.80;4.50;;;;;;;;;;5135542;27;20292;-82
2021/08/10 00:30:08;;;;;;;9.77;4.80;;;;;;;;;;5135606;27;20236;-82
2021/08/10 00:32:35;;;;;;;8.07;4.23;;;;;;;;;;5135720;27;20193;-81
2021/08/10 00:35:02;;;;;;;10.03;4.30;;;;;;;;;;5135528;27;20257;-82
2021/08/10 00:37:30;;;;;;;7.65;4.60;;;;;;;;;;5135781;27;20641;-81
2021/08/10 00:39:57;;;;;;;8.20;4.47;;;;;;;;;;5135495;27;20687;-81
2021/08/10 00:42:25;;;;;;;6.95;4.28;;;;;;;;;;5135508;27;20239;-81
2021/08/10 00:44:52;;;;;;;6.07;4.20;;;;;;;;;;5135553;27;20276;-82
2021/08/10 00:47:20;;;;;;;7.13;4.50;;;;;;;;;;5135561;27;20229;-81
2021/08/10 00:49:47;;;;;;;9.07;4.57;;;;;;;;;;5135166;27;20296;-82
2021/08/10 00:52:15;;;;;;;9.87;4.43;;;;;;;;;;5135473;27;20284;-82
2021/08/10 00:54:42;;;;;;;8.83;4.80;;;;;;;;;;5135139;27;20323;-82
2021/08/10 00:57:09;;;;;;;8.47;4.47;;;;;;;;;;5135439;27;20232;-82
2021/08/10 00:59:38;;;;;;;11.37;4.47;;;;;;;;;;5135093;27;20205;-82
2021/08/10 01:02:06;;;;;;;11.30;4.40;;;;;;;;;;5135314;27;20280;-81
2021/08/10 01:04:33;;;;;;;7.77;3.97;;;;;;;;;;5134965;27;20232;-81
2021/08/10 01:07:13;;;;;;;7.10;4.43;;;;;;;;;;5135153;27;20283;-82
2021/08/10 01:09:47;;;;;;;8.97;4.57;;;;;;;;;;5135031;27;20295;-81
2021/08/10 01:12:17;;;;;;;8.07;4.07;;;;;;;;;;5134848;27;20205;-82
2021/08/10 01:14:48;;;;;;;9.03;4.30;;;;;;;;;;5135024;27;20225;-82
2021/08/10 01:17:21;;;;;;;9.53;4.80;;;;;;;;;;5134729;27;20197;-82
2021/08/10 01:20:04;;;;;;;8.77;4.30;;;;;;;;;;5134666;27;20209;-83
2021/08/10 01:22:32;;;;;;;6.87;4.20;;;;;;;;;;5134786;27;20283;-82
2021/08/10 01:25:03;;;;;;;12.43;4.30;;;;;;;;;;5134175;27;20220;-82
2021/08/10 01:27:44;;;;;;;13.50;5.10;;;;;;;;;;5115985;27;20596;-81
2021/08/10 01:30:14;;;;;;;9.57;4.50;;;;;;;;;;5114031;28;20240;-81
2021/08/10 01:32:45;;;;;;;11.43;5.07;;;;;;;;;;5114007;28;20276;-81
2021/08/10 01:35:13;;;;;;;7.63;4.53;;;;;;;;;;5113719;27;20653;-82
2021/08/10 01:37:41;;;;;;;9.77;4.90;;;;;;;;;;5113774;28;20280;-81
2021/08/10 01:40:10;;;;;;;15.83;5.73;;;;;;;;;;5113203;28;20293;-82
2021/08/10 01:42:38;;;;;;;9.47;5.23;;;;;;;;;;5113733;28;20284;-82
2021/08/10 01:45:07;;;;;;;9.73;5.50;;;;;;;;;;5113799;27;20288;-81
2021/08/10 01:47:34;;;;;;;10.97;5.20;;;;;;;;;;5113617;28;20229;-82
2021/08/10 01:50:04;;;;;;;13.07;5.27;;;;;;;;;;5113741;28;20205;-82
2021/08/10 01:52:31;;;;;;;10.17;5.40;;;;;;;;;;5113704;28;20285;-82
2021/08/10 01:54:58;;;;;;;10.97;5.23;;;;;;;;;;5113280;28;21156;-82
2021/08/10 01:57:26;;;;;;;10.93;5.57;;;;;;;;;;5113660;28;20229;-82
2021/08/10 01:59:55;;;;;;;10.40;5.27;;;;;;;;;;5113595;28;20233;-82
2021/08/10 02:02:22;;;;;;;11.00;5.20;;;;;;;;;;5113025;28;20228;-82
2021/08/10 02:04:50;;;;;;;11.63;5.17;;;;;;;;;;5113448;28;20200;-82
2021/08/10 02:07:19;;;;;;;12.17;5.00;;;;;;;;;;5113473;28;20627;-81
2021/08/10 02:09:47;;;;;;;11.73;4.90;;;;;;;;;;5113460;28;20589;-82
2021/08/10 02:12:15;;;;;;;10.63;5.10;;;;;;;;;;5113335;28;20286;-82
2021/08/10 02:14:44;;;;;;;10.20;4.93;;;;;;;;;;5111763;28;20661;-82
2021/08/10 02:17:14;;;;;;;8.20;5.13;;;;;;;;;;5112580;27;20289;-82
2021/08/10 02:19:41;;;;;;;10.90;5.50;;;;;;;;;;5113238;28;20225;-82
2021/08/10 02:22:10;;;;;;;7.97;5.03;;;;;;;;;;5113340;28;20284;-82
2021/08/10 02:24:40;;;;;;;9.43;5.23;;;;;;;;;;5113250;28;20225;-82
2021/08/10 02:27:09;;;;;;;11.40;5.27;;;;;;;;;;5128227;27;20247;-82
2021/08/10 02:29:37;;;;;;;11.47;5.67;;;;;;;;;;5133441;27;20284;-82
2021/08/10 02:32:05;;;;;;;10.97;5.97;;;;;;;;;;5133570;27;20247;-82
2021/08/10 02:34:33;;;;;;;12.47;5.63;;;;;;;;;;5133160;27;20683;-82
2021/08/10 02:37:01;;;;;;;10.67;5.90;;;;;;;;;;5133780;27;20235;-82
2021/08/10 02:39:28;;;;;;;13.67;5.77;;;;;;;;;;5133465;27;20229;-82
2021/08/10 02:41:58;;;;;;;13.97;5.37;;;;;;;;;;5133562;27;20229;-82
2021/08/10 02:44:25;;;;;;;10.07;5.87;;;;;;;;;;5133057;27;20284;-82
2021/08/10 02:46:53;;;;;;;10.57;5.07;;;;;;;;;;5133485;27;20235;-82
2021/08/10 02:49:20;;;;;;;12.20;5.40;;;;;;;;;;5133262;27;20284;-82
2021/08/10 02:51:47;;;;;;;10.97;5.03;;;;;;;;;;5133030;27;20273;-82
2021/08/10 02:54:15;;;;;;;10.33;5.33;;;;;;;;;;5132937;27;20320;-81
2021/08/10 02:56:47;;;;;;;9.27;5.73;;;;;;;;;;5133054;27;20193;-82
2021/08/10 02:59:20;;;;;;;11.43;5.40;;;;;;;;;;5133086;27;20287;-82
2021/08/10 03:01:51;;;;;;;9.60;5.17;;;;;;;;;;5133131;27;20288;-82
2021/08/10 03:04:19;;;;;;;10.30;5.20;;;;;;;;;;5133354;27;20280;-81
2021/08/10 03:06:46;;;;;;;11.43;5.30;;;;;;;;;;5133315;27;20197;-81
2021/08/10 03:09:13;;;;;;;14.20;5.87;;;;;;;;;;5133313;27;20252;-82
2021/08/10 03:11:41;;;;;;;10.17;5.27;;;;;;;;;;5132680;27;20229;-82
2021/08/10 03:14:10;;;;;;;13.20;5.70;;;;;;;;;;5133090;27;20311;-82
2021/08/10 03:16:39;;;;;;;13.33;5.27;;;;;;;;;;5133418;27;20217;-82
2021/08/10 03:19:07;;;;;;;12.40;5.83;;;;;;;;;;5131176;27;20283;-82
2021/08/10 03:21:36;;;;;;;12.37;5.73;;;;;;;;;;5112521;28;20229;-82
2021/08/10 03:24:04;;;;;;;14.37;5.93;;;;;;;;;;5112301;28;20682;-81
2021/08/10 03:26:32;;;;;;;9.97;5.30;;;;;;;;;;5112496;28;20282;-82
2021/08/10 03:29:00;;;;;;;9.00;5.50;;;;;;;;;;5112039;28;20198;-82
2021/08/10 03:31:28;;;;;;;12.30;5.57;;;;;;;;;;5112392;28;20237;-82
2021/08/10 03:33:57;;;;;;;15.33;6.10;;;;;;;;;;5112138;28;20289;-82
2021/08/10 03:36:25;;;;;;;10.43;5.90;;;;;;;;;;5112008;28;20253;-83
2021/08/10 03:38:55;;;;;;;11.20;5.93;;;;;;;;;;5112205;28;20284;-82
2021/08/10 03:41:23;;;;;;;10.93;5.97;;;;;;;;;;5112136;28;20190;-82
2021/08/10 03:43:51;;;;;;;12.63;6.40;;;;;;;;;;5112038;28;20238;-82
2021/08/10 03:46:18;;;;;;;14.83;6.53;;;;;;;;;;5112072;28;20281;-82
2021/08/10 03:48:46;;;;;;;12.17;6.13;;;;;;;;;;5112130;28;20733;-81
2021/08/10 03:51:15;;;;;;;12.43;6.37;;;;;;;;;;5112132;28;20292;-82
2021/08/10 03:53:43;;;;;;;14.57;6.23;;;;;;;;;;5111964;28;20221;-82
2021/08/10 03:56:10;;;;;;;17.83;6.73;;;;;;;;;;5111711;28;20747;-82
2021/08/10 03:58:38;;;;;;;12.17;6.70;;;;;;;;;;5111667;28;20236;-82
2021/08/10 04:01:06;;;;;;;11.80;6.70;;;;;;;;;;5112020;28;20596;-82
2021/08/10 04:03:34;;;;;;;16.17;6.13;;;;;;;;;;5113174;28;20233;-82
2021/08/10 04:06:02;;;;;;;15.23;6.37;;;;;;;;;;5115628;28;20626;-82
2021/08/10 04:08:31;;;;;;;10.80;5.97;;;;;;;;;;5115925;28;20249;-81
2021/08/10 04:10:59;;;;;;;13.63;6.60;;;;;;;;;;5115578;28;20280;-82
2021/08/10 04:13:26;;;;;;;14.40;6.33;;;;;;;;;;5115832;28;20288;-82
2021/08/10 04:15:54;;;;;;;13.50;6.60;;;;;;;;;;5115718;28;20312;-82
2021/08/10 04:18:23;;;;;;;16.23;6.93;;;;;;;;;;5115685;28;20236;-82
2021/08/10 04:20:51;;;;;;;15.30;6.90;;;;;;;;;;5115643;28;20258;-82
2021/08/10 04:23:18;;;;;;;16.03;6.67;;;;;;;;;;5115622;28;20232;-82
2021/08/10 04:25:47;;;;;;;18.43;6.20;;;;;;;;;;5115235;28;20276;-82
2021/08/10 04:28:15;;;;;;;13.87;6.40;;;;;;;;;;5115422;28;20280;-82
2021/08/10 04:30:42;;;;;;;10.97;6.20;;;;;;;;;;5115520;28;20284;-82
2021/08/10 04:33:10;;;;;;;14.07;6.50;;;;;;;;;;5115404;28;20292;-82
2021/08/10 04:35:37;;;;;;;13.40;6.57;;;;;;;;;;5115156;27;20313;-82
2021/08/10 04:38:05;;;;;;;16.20;6.43;;;;;;;;;;5115431;28;20254;-78
2021/08/10 04:40:32;;;;;;;10.50;6.07;;;;;;;;;;5114858;28;20240;-78
2021/08/10 04:43:01;;;;;;;17.07;5.97;;;;;;;;;;5115002;28;20202;-77
2021/08/10 04:45:29;;;;;;;11.73;6.23;;;;;;;;;;5115315;28;20209;-78
2021/08/10 04:47:56;;;;;;;12.33;6.10;;;;;;;;;;5115169;28;20202;-78
2021/08/10 04:50:24;;;;;;;13.30;5.73;;;;;;;;;;5114983;28;20194;-78
2021/08/10 04:52:51;;;;;;;14.00;6.20;;;;;;;;;;5114803;27;20208;-78
2021/08/10 04:55:19;;;;;;;10.90;5.90;;;;;;;;;;5114550;28;20275;-78
2021/08/10 04:57:46;;;;;;;11.93;5.83;;;;;;;;;;5115053;28;20289;-78
2021/08/10 05:00:15;;;;;;;12.83;6.07;;;;;;;;;;5115097;28;20544;-78
2021/08/10 05:02:42;;;;;;;15.93;6.40;;;;;;;;;;5114713;28;20649;-78
2021/08/10 05:05:10;;;;;;;12.83;5.93;;;;;;;;;;5114568;28;20621;-78
2021/08/10 05:07:37;;;;;;;12.37;5.90;;;;;;;;;;5114755;28;20198;-78
2021/08/10 05:10:05;;;;;;;13.37;6.03;;;;;;;;;;5114106;28;20214;-78
2021/08/10 05:12:32;;;;;;;17.00;6.10;;;;;;;;;;5114640;28;20278;-78
2021/08/10 05:14:59;;;;;;;13.00;6.07;;;;;;;;;;5114388;28;20573;-78
2021/08/10 05:17:28;;;;;;;12.97;6.50;;;;;;;;;;5114504;28;20284;-77
2021/08/10 05:19:55;;;;;;;11.40;5.73;;;;;;;;;;5123054;27;20288;-78
2021/08/10 05:22:22;;;;;;;9.47;5.30;;;;;;;;;;5134477;27;20675;-78
2021/08/10 05:24:49;;;;;;;9.07;5.53;;;;;;;;;;5134274;27;20287;-78
2021/08/10 05:27:16;;;;;;;10.77;6.03;;;;;;;;;;5134747;27;20291;-78
2021/08/10 05:29:44;;;;;;;14.43;6.30;;;;;;;;;;5134715;27;20228;-78
2021/08/10 05:32:11;;;;;;;11.97;6.10;;;;;;;;;;5134855;27;20236;-78
2021/08/10 05:34:39;;;;;;;13.73;5.90;;;;;;;;;;5134329;27;20292;-78
2021/08/10 05:37:07;;;;;;;13.57;5.93;;;;;;;;;;5134965;27;20192;-78
2021/08/10 05:39:34;;;;;;;9.77;5.80;;;;;;;;;;5134445;27;20708;-79
2021/08/10 05:42:01;;;;;;;10.43;6.20;;;;;;;;;;5134494;27;20224;-78
2021/08/10 05:44:28;;;;;;;15.13;6.17;;;;;;;;;;5134643;27;20578;-78
2021/08/10 05:46:55;;;;;;;13.67;5.43;;;;;;;;;;5134131;27;20193;-78
2021/08/10 05:49:23;;;;;;;12.20;5.70;;;;;;;;;;5134361;27;20293;-78
2021/08/10 05:51:51;;;;;;;10.57;5.90;;;;;;;;;;5134534;27;20197;-78
2021/08/10 05:54:18;;;;;;;10.93;5.43;;;;;;;;;;5133367;27;20256;-78
2021/08/10 05:56:47;;;;;;;12.17;6.10;;;;;;;;;;5133901;27;20275;-78
2021/08/10 05:59:14;;;;;;;13.87;5.90;;;;;;;;;;5133995;27;20197;-78
2021/08/10 06:01:41;;;;;;;11.70;5.50;;;;;;;;;;5134226;27;20295;-78
2021/08/10 06:04:09;;;;;;;14.27;5.70;;;;;;;;;;5134210;27;20284;-78
2021/08/10 06:06:36;;;;;;;11.03;5.20;;;;;;;;;;5134017;27;20193;-78
2021/08/10 06:09:05;;;;;;;9.97;5.60;;;;;;;;;;5133625;27;20300;-78
2021/08/10 06:11:32;;;;;;;15.53;5.33;;;;;;;;;;5134070;27;20235;-78
2021/08/10 06:13:59;;;;;;;10.67;5.30;;;;;;;;;;5133680;27;20292;-78
2021/08/10 06:16:26;;;;;;;10.87;5.70;;;;;;;;;;5133632;27;20747;-78
2021/08/10 06:18:54;;;;;;;13.07;5.83;;;;;;;;;;5133675;27;20295;-78
2021/08/10 06:21:21;;;;;;;9.77;5.10;;;;;;;;;;5112994;28;20198;-78
2021/08/10 06:23:49;;;;;;;13.57;5.60;;;;;;;;;;5113106;28;20740;-78
2021/08/10 06:26:17;;;;;;;15.00;5.13;;;;;;;;;;5112574;28;20190;-78
2021/08/10 06:28:45;;;;;;;9.50;4.67;;;;;;;;;;5113404;28;20200;-78
2021/08/10 06:31:12;;;;;;;11.50;4.60;;;;;;;;;;5112988;28;20296;-78
2021/08/10 06:33:39;;;;;;;10.77;5.10;;;;;;;;;;5113121;28;20281;-78
2021/08/10 06:36:06;;;;;;;9.88;5.15;;;;;;;;;;5112802;28;20253;-78
2021/08/10 06:38:34;;;;;;;10.38;4.80;;;;;;;;;;5113434;28;20202;-78
2021/08/10 06:41:01;;;;;;;9.88;4.50;;;;;;;;;;5113587;28;20201;-78
2021/08/10 06:43:30;;;;;;;7.35;4.72;;;;;;;;;;5111982;28;20289;-78
2021/08/10 06:45:57;;;;;;;9.35;4.53;;;;;;;;;;5113488;28;20718;-78
2021/08/10 06:48:24;;;;;;;8.10;4.50;;;;;;;;;;5113456;28;20561;-77
2021/08/10 06:50:52;;;;;;;10.85;4.45;;;;;;;;;;5112662;28;20233;-78
2021/08/10 06:53:19;;;;;;;10.45;5.03;;;;;;;;;;5113284;28;20324;-78
2021/08/10 06:55:47;;;;;;;11.18;4.63;;;;;;;;;;5112680;28;20536;-79
2021/08/10 06:58:14;;;;;;;11.13;4.80;;;;;;;;;;5112782;28;20208;-78
2021/08/10 07:00:43;;;;;;;10.32;4.65;;;;;;;;;;5113053;28;20376;-78
2021/08/10 07:03:10;;;;;;;10.00;5.00;;;;;;;;;;5113110;28;20605;-78
2021/08/10 07:05:38;;;;;;;10.90;4.43;;;;;;;;;;5113009;28;20285;-78
2021/08/10 07:08:05;;;;;;;8.82;4.03;;;;;;;;;;5113019;28;20342;-78
2021/08/10 07:10:32;;;;;;;7.93;4.18;;;;;;;;;;5112799;28;20230;-77
2021/08/10 07:12:59;;;;;;;11.63;4.40;;;;;;;;;;5112779;28;20288;-78
2021/08/10 07:15:27;;;;;;;7.43;4.38;;;;;;;;;;5112699;28;20236;-78
2021/08/10 07:17:55;;;;;;;8.43;4.00;;;;;;;;;;5112969;28;20288;-78
2021/08/10 07:20:22;;;;;;;8.68;4.00;;;;;;;;;;5124930;27;20308;-78
2021/08/10 07:22:49;;;;;;;8.07;4.00;;;;;;;;;;5132863;27;20197;-78
2021/08/10 07:25:18;;;;;;;6.85;3.78;;;;;;;;;;5133272;27;20284;-78
2021/08/10 07:27:46;;;;;;;6.72;4.22;;;;;;;;;;5133248;27;20262;-78
2021/08/10 07:30:14;;;;;;;7.45;3.70;;;;;;;;;;5133725;27;20296;-78
2021/08/10 07:32:41;;;;;;;9.52;4.05;;;;;;;;;;5133344;27;20197;-78
2021/08/10 07:35:11;;;;;;;6.65;3.50;;;;;;;;;;5132788;27;20288;-78
2021/08/10 07:37:41;;;;;;;8.48;3.78;;;;;;;;;;5132658;27;20644;-78
2021/08/10 07:40:09;;;;;;;9.73;4.07;;;;;;;;;;5136701;27;20276;-78
2021/08/10 07:42:37;;;;;;;6.03;3.80;;;;;;;;;;5137012;27;20198;-78
2021/08/10 07:45:04;;;;;;;9.50;4.00;;;;;;;;;;5136628;27;20284;-78
2021/08/10 07:47:31;;;;;;;8.43;3.95;;;;;;;;;;5136857;27;20201;-78
2021/08/10 07:49:58;;;;;;;8.80;3.72;;;;;;;;;;5136762;27;20303;-78
2021/08/10 07:52:27;;;;;;;9.27;4.07;;;;;;;;;;5136670;27;20744;-78
2021/08/10 07:54:54;;;;;;;8.27;3.80;;;;;;;;;;5136628;27;20311;-78
2021/08/10 07:57:21;;;;;;;9.45;3.90;;;;;;;;;;5136958;27;20223;-79
2021/08/10 07:59:49;;;;;;;7.65;3.83;;;;;;;;;;5136698;27;20288;-78
2021/08/10 08:02:16;;;;;;;8.20;3.88;;;;;;;;;;5136700;27;20197;-78
2021/08/10 08:04:43;;;;;;;7.40;3.60;;;;;;;;;;5136643;27;20205;-78
2021/08/10 08:07:10;;;;;;;6.32;3.30;;;;;;;;;;5136164;27;20197;-78
2021/08/10 08:09:39;;;;;;;8.75;3.38;;;;;;;;;;5136417;27;20336;-78
2021/08/10 08:12:07;;;;;;;6.63;3.35;;;;;;;;;;5137107;27;20284;-78
2021/08/10 08:14:34;;;;;;;7.22;3.60;;;;;;;;;;5136877;27;20598;-78
2021/08/10 08:17:01;;;;;;;5.18;2.80;;;;;;;;;;5136472;27;20252;-78
2021/08/10 08:19:29;;;;;;;6.75;3.17;;;;;;;;;;5130902;27;20292;-78
2021/08/10 08:21:56;;;;;;;6.35;2.80;;;;;;;;;;5115867;28;20247;-77
2021/08/10 08:24:23;;;;;;;7.50;3.25;;;;;;;;;;5115608;28;20293;-78
2021/08/10 08:26:52;;;;;;;6.15;2.92;;;;;;;;;;5115912;28;20292;-79
2021/08/10 08:29:19;;;;;;;5.97;2.83;;;;;;;;;;5115359;28;20717;-78
2021/08/10 08:31:46;;;;;;;5.28;2.40;;;;;;;;;;5115582;28;20296;-78
2021/08/10 08:34:13;;;;;;;8.63;2.85;;;;;;;;;;5115335;28;20292;-78
2021/08/10 08:36:42;;;;;;;6.40;2.85;;;;;;;;;;5115022;27;20583;-79
2021/08/10 08:39:09;;;;;;;5.20;2.58;;;;;;;;;;5115496;28;20205;-79
2021/08/10 08:41:36;;;;;;;6.93;3.00;;;;;;;;;;5116101;28;20284;-78
2021/08/10 08:44:05;;;;;;;4.80;2.35;;;;;;;;;;5115653;28;20625;-79
2021/08/10 08:46:33;;;;;;;4.70;2.58;;;;;;;;;;5115207;28;20193;-79
2021/08/10 08:49:00;;;;;;;4.47;2.65;;;;;;;;;;5115241;28;20331;-78
2021/08/10 08:51:29;;;;;;;9.23;2.78;;;;;;;;;;5115758;28;20280;-78
2021/08/10 08:53:57;;;;;;;5.25;2.33;;;;;;;;;;5115159;28;20226;-78
2021/08/10 08:56:25;;;;;;;5.32;2.30;;;;;;;;;;5114801;28;20316;-79
2021/08/10 08:58:53;;;;;;;3.83;2.03;;;;;;;;;;5115029;28;20208;-79
2021/08/10 09:01:21;;;;;;;5.65;1.90;;;;;;;;;;5114713;27;20201;-79
2021/08/10 09:03:48;;;;;;;3.78;2.00;;;;;;;;;;5115236;28;20606;-79
2021/08/10 09:06:16;;;;;;;6.30;2.10;;;;;;;;;;5114978;27;20771;-78
2021/08/10 09:08:43;;;;;;;5.07;2.08;;;;;;;;;;5115089;27;20259;-78
2021/08/10 09:11:11;;;;;;;3.67;2.10;;;;;;;;;;5114795;27;20578;-78
2021/08/10 09:13:39;;;;;;;4.03;1.88;;;;;;;;;;5115189;28;20288;-79
2021/08/10 09:16:07;;;;;;;4.07;1.90;;;;;;;;;;5114743;28;20274;-79
2021/08/10 09:18:39;;;;;;;4.45;1.85;;;;;;;;;;5115433;28;20229;-79
2021/08/10 09:21:08;;;;;;;4.22;1.98;;;;;;;;;;5115116;28;20209;-79
2021/08/10 09:23:39;;;;;;;2.67;1.70;;;;;;;;;;5114727;27;20236;-78
2021/08/10 09:26:07;;;;;;;2.30;1.75;;;;;;;;;;5114656;28;20285;-78
2021/08/10 09:28:35;;;;;;;4.28;1.80;;;;;;;;;;5114428;27;20292;-78
2021/08/10 09:31:17;;;;;;;6.95;1.90;;;;;;;;;;5114012;28;20197;-78
2021/08/10 09:33:45;;;;;;;5.07;2.15;;;;;;;;;;5114227;28;20296;-79
2021/08/10 09:36:20;;;;;;;4.30;1.58;;;;;;;;;;5114038;28;20340;-78
2021/08/10 09:38:48;;;;;;;3.65;1.65;;;;;;;;;;5114279;28;20262;-79
2021/08/10 09:41:15;;;;;;;2.75;1.45;;;;;;;;;;5114531;28;20285;-78
2021/08/10 09:43:42;;;;;;;2.88;1.48;;;;;;;;;;5114348;28;20696;-79
2021/08/10 09:46:11;;;;;;;2.80;1.52;;;;;;;;;;5113816;27;20198;-78
2021/08/10 09:48:39;;;;;;;5.50;1.95;;;;;;;;;;5114354;28;20197;-78
2021/08/10 09:51:08;;;;;;;5.05;1.92;;;;;;;;;;5113857;28;20201;-79
2021/08/10 09:53:35;;;;;;;2.42;1.85;;;;;;;;;;5113894;28;20268;-78
2021/08/10 09:56:02;;;;;;;2.92;1.80;;;;;;;;;;5114196;28;20289;-78
2021/08/10 09:58:30;;;;;;;3.03;1.60;;;;;;;;;;5113800;28;20204;-80
2021/08/10 10:01:02;;;;;;;3.28;1.40;;;;;;;;;;5112749;28;20293;-79
2021/08/10 10:03:29;;;;;;;2.05;1.33;;;;;;;;;;5113852;28;20288;-79
2021/08/10 10:05:56;;;;;;;2.38;1.38;;;;;;;;;;5114188;28;20284;-79
2021/08/10 10:08:26;;;;;;;4.00;1.65;;;;;;;;;;5114100;28;20222;-79
2021/08/10 10:10:54;;;;;;;3.15;2.05;;;;;;;;;;5113671;28;20241;-79
2021/08/10 10:13:22;;;;;;;4.53;1.98;;;;;;;;;;5112943;28;20682;-78
2021/08/10 10:15:49;;;;;;;2.45;1.75;;;;;;;;;;5113297;28;20314;-79
2021/08/10 10:18:18;;;;;;;2.92;2.05;;;;;;;;;;5113443;28;20217;-78
2021/08/10 10:20:46;;;;;;;4.88;2.33;;;;;;;;;;5111871;28;20240;-79
2021/08/10 10:23:14;;;;;;;4.75;2.47;;;;;;;;;;5113710;27;20288;-79
2021/08/10 10:25:42;;;;;;;5.32;2.80;;;;;;;;;;5113760;28;20284;-79
2021/08/10 10:28:10;;;;;;;4.65;2.83;;;;;;;;;;5113305;28;20756;-78
2021/08/10 10:30:37;;;;;;;3.30;3.00;;;;;;;;;;5113377;28;20578;-78
2021/08/10 10:33:04;;;;;;;5.80;3.00;;;;;;;;;;5113329;28;20250;-78
2021/08/10 10:35:32;;;;;;;4.32;3.10;;;;;;;;;;5112880;28;20208;-78
2021/08/10 10:38:00;;;;;;;6.57;3.00;;;;;;;;;;5113061;28;20311;-78
2021/08/10 10:40:28;;;;;;;4.90;2.47;;;;;;;;;;5113266;28;20624;-78
2021/08/10 10:42:57;;;;;;;4.28;2.50;;;;;;;;;;5112922;28;20201;-77
2021/08/10 10:45:35;;;;;;;4.78;2.78;;;;;;;;;;5112864;28;20213;-78
2021/08/10 10:48:03;;;;;;;4.82;2.78;;;;;;;;;;5113386;28;20296;-78
2021/08/10 10:50:30;;;;;;;5.88;2.58;;;;;;;;;;5113171;28;20640;-77
2021/08/10 10:53:02;;;;;;;6.57;2.75;;;;;;;;;;5113113;28;20740;-77
2021/08/10 10:55:33;;;;;;;4.90;2.58;;;;;;;;;;5112736;28;20284;-77
2021/08/10 10:58:01;;;;;;;5.43;2.90;;;;;;;;;;5112551;28;20278;-77
2021/08/10 11:00:30;;;;;;;3.92;2.95;;;;;;;;;;5112956;28;20281;-78
2021/08/10 11:03:13;;;;;;;3.92;2.80;;;;;;;;;;5113087;28;20594;-78
2021/08/10 11:05:40;;;;;;;5.75;2.88;;;;;;;;;;5112797;28;20288;-78
2021/08/10 11:08:28;;;;;;;4.25;2.20;;;;;;;;;;5113032;28;20300;-78
2021/08/10 11:10:55;;;;;;;3.03;1.80;;;;;;;;;;5112922;28;20615;-78
2021/08/10 11:13:37;;;;;;;2.05;1.52;;;;;;;;;;5115734;28;20288;-78
2021/08/10 11:16:04;;;;;;;2.17;1.50;;;;;;;;;;5117840;28;20244;-78
2021/08/10 11:18:33;;;;;;;3.97;1.42;;;;;;;;;;5116888;28;20312;-78
2021/08/10 11:21:21;;;;;;;2.25;1.20;;;;;;;;;;5134945;27;20299;-78
2021/08/10 11:23:48;;;;;;;2.95;1.73;;;;;;;;;;5132675;27;20205;-78
2021/08/10 11:26:36;;;;;;;2.00;1.50;;;;;;;;;;5136921;27;20208;-78
2021/08/10 11:29:05;;;;;;;1.73;1.58;;;;;;;;;;5137147;27;20209;-79
2021/08/10 11:31:33;;;;;;;2.60;1.98;;;;;;;;;;5137214;27;20556;-78
2021/08/10 11:34:01;;;;;;;2.38;2.17;;;;;;;;;;5137041;27;20236;-78
2021/08/10 11:36:29;;;;;;;3.45;3.15;;;;;;;;;;5137088;27;20233;-79
2021/08/10 11:39:06;;;;;;;4.28;2.72;;;;;;;;;;5137006;27;20260;-78
2021/08/10 11:41:36;;;;;;;3.47;2.67;;;;;;;;;;5136575;27;20285;-78
2021/08/10 11:44:06;;;;;;;2.95;2.45;;;;;;;;;;5136909;27;20205;-79
2021/08/10 11:46:34;;;;;;;2.03;1.83;;;;;;;;;;5136948;27;20293;-79
2021/08/10 11:49:02;;;;;;;3.60;1.95;;;;;;;;;;5136588;27;20235;-79
2021/08/10 11:51:30;;;;;;;1.80;1.70;;;;;;;;;;5136560;27;20245;-78
2021/08/10 11:53:58;;;;;;;1.30;1.20;;;;;;;;;;5135054;27;20286;-78
2021/08/10 11:56:29;;;;;;;1.60;1.50;;;;;;;;;;5136223;27;20236;-78
2021/08/10 11:58:57;;;;;;;2.10;1.60;;;;;;;;;;5136659;27;20648;-78
2021/08/10 12:01:26;;;;;;;1.65;1.48;;;;;;;;;;5136729;27;20308;-79
2021/08/10 12:03:54;;;;;;;1.48;1.38;;;;;;;;;;5136465;27;20251;-78
2021/08/10 12:06:27;;;;;;;2.92;1.13;;;;;;;;;;5136563;27;20279;-78
2021/08/10 12:08:55;;;;;;;1.00;0.80;;;;;;;;;;5136344;27;20209;-78
2021/08/10 12:11:23;;;;;;;0.70;0.60;;;;;;;;;;5136146;27;20205;-78
2021/08/10 12:13:51;;;;;;;0.98;0.73;;;;;;;;;;5136282;27;20291;-78
2021/08/10 12:16:18;;;;;;;0.88;0.80;;;;;;;;;;5136289;27;20643;-78
2021/08/10 12:18:50;;;;;;;1.02;0.68;;;;;;;;;;5136299;27;20311;-78
2021/08/10 12:21:18;;;;;;;1.00;0.70;;;;;;;;;;5115679;27;20202;-78
2021/08/10 12:23:48;;;;;;;1.92;0.90;;;;;;;;;;5114698;28;20201;-78
2021/08/10 12:26:16;;;;;;;1.05;0.60;;;;;;;;;;5115341;28;20217;-78
2021/08/10 12:28:53;;;;;;;2.63;0.70;;;;;;;;;;5115306;28;20292;-78
2021/08/10 12:31:21;;;;;;;0.80;0.60;;;;;;;;;;5115436;27;20229;-78
2021/08/10 12:33:52;;;;;;;1.08;0.65;;;;;;;;;;5115075;28;20284;-78
2021/08/10 12:36:20;;;;;;;1.40;0.70;;;;;;;;;;5115443;28;20289;-78
2021/08/10 12:38:50;;;;;;;0.80;0.70;;;;;;;;;;5114859;28;20699;-78
2021/08/10 12:41:17;;;;;;;1.58;0.70;;;;;;;;;;5115234;28;20281;-79
2021/08/10 12:43:49;;;;;;;1.15;0.85;;;;;;;;;;5115354;28;20202;-78
2021/08/10 12:46:27;;;;;;;3.25;0.70;;;;;;;;;;5114575;28;20205;-78
2021/08/10 12:49:10;;;;;;;0.95;0.75;;;;;;;;;;5114965;28;20708;-78
2021/08/10 12:52:10;;;;;;;0.80;0.70;;;;;;;;;;5115219;28;20285;-78
2021/08/10 12:54:39;;;;;;;1.92;0.85;;;;;;;;;;5091602;28;20303;-78
2021/08/10 12:57:18;;;;;;;0.60;0.60;;;;;;;;;;5091999;28;20233;-78
2021/08/10 12:59:49;;;;;;;1.70;0.52;;;;;;;;;;5092067;28;20289;-78
2021/08/10 13:02:31;;;;;;;3.47;0.63;;;;;;;;;;5092333;28;20252;-79
2021/08/10 13:05:00;;;;;;;0.70;0.60;;;;;;;;;;5092655;28;20576;-78
2021/08/10 13:07:27;;;;;;;0.75;0.55;;;;;;;;;;5092313;28;20197;-78
2021/08/10 13:09:55;;;;;;;0.55;0.52;;;;;;;;;;5092435;28;20250;-78
2021/08/10 13:12:23;;;;;;;1.25;0.68;;;;;;;;;;5092600;28;20281;-78
2021/08/10 13:15:01;;;;;;;1.33;0.80;;;;;;;;;;5092138;28;20297;-77
2021/08/10 13:17:28;;;;;;;0.47;0.40;;;;;;;;;;5092150;28;20666;-78
2021/08/10 13:20:11;;;;;;;0.77;0.68;;;;;;;;;;5100768;28;20679;-78
2021/08/10 13:22:42;;;;;;;1.00;0.55;;;;;;;;;;5111963;28;20236;-78
2021/08/10 13:25:10;;;;;;;3.33;0.95;;;;;;;;;;5113124;28;20650;-78
2021/08/10 13:27:37;;;;;;;0.85;0.70;;;;;;;;;;5114898;28;20277;-78
2021/08/10 13:30:05;;;;;;;1.13;0.52;;;;;;;;;;5114489;28;20284;-78
2021/08/10 13:32:32;;;;;;;1.27;0.50;;;;;;;;;;5114199;28;20285;-78
2021/08/10 13:34:59;;;;;;;0.80;0.70;;;;;;;;;;5114146;28;20288;-78
2021/08/10 13:37:28;;;;;;;1.90;0.80;;;;;;;;;;5112874;28;20289;-78
2021/08/10 13:39:55;;;;;;;0.70;0.70;;;;;;;;;;5114263;28;20244;-78
2021/08/10 13:42:22;;;;;;;1.20;0.73;;;;;;;;;;5114676;28;20292;-79
2021/08/10 13:44:49;;;;;;;1.35;0.70;;;;;;;;;;5114373;28;20204;-78
2021/08/10 13:47:17;;;;;;;0.70;0.60;;;;;;;;;;5114087;28;20236;-79
2021/08/10 13:49:44;;;;;;;1.35;0.80;;;;;;;;;;5113845;28;20687;-78
2021/08/10 13:52:11;;;;;;;0.60;0.60;;;;;;;;;;5113308;28;20296;-78
2021/08/10 13:54:39;;;;;;;0.75;0.65;;;;;;;;;;5113446;28;20267;-79
2021/08/10 13:57:08;;;;;;;1.17;0.63;;;;;;;;;;5113867;28;20206;-78
2021/08/10 13:59:35;;;;;;;0.90;0.68;;;;;;;;;;5113765;28;20261;-78
2021/08/10 14:02:03;;;;;;;0.98;0.80;;;;;;;;;;5113903;28;20281;-78
2021/08/10 14:04:33;;;;;;;0.60;0.60;;;;;;;;;;5113971;28;20201;-78
2021/08/10 14:07:00;;;;;;;0.65;0.57;;;;;;;;;;5113430;28;20697;-78
2021/08/10 14:09:27;;;;;;;2.08;0.60;;;;;;;;;;5114096;28;20217;-78
2021/08/10 14:11:56;;;;;;;1.27;0.68;;;;;;;;;;5113807;28;20289;-79
2021/08/10 14:14:23;;;;;;;3.50;1.27;;;;;;;;;;5113468;28;20293;-79
2021/08/10 14:16:50;;;;;;;1.55;1.30;;;;;;;;;;5113386;28;20284;-78
2021/08/10 14:19:17;;;;;;;1.65;0.90;;;;;;;;;;5116627;27;20316;-79
2021/08/10 14:21:44;;;;;;;1.15;0.60;;;;;;;;;;5133801;27;20204;-78
2021/08/10 14:24:11;;;;;;;1.88;0.73;;;;;;;;;;5134495;27;20225;-78
2021/08/10 14:26:39;;;;;;;1.52;0.60;;;;;;;;;;5134693;27;20251;-78
2021/08/10 14:29:07;;;;;;;1.13;0.70;;;;;;;;;;5133834;27;20232;-78
2021/08/10 14:31:34;;;;;;;1.02;0.70;;;;;;;;;;5133630;27;20283;-79
2021/08/10 14:34:02;;;;;;;1.08;0.68;;;;;;;;;;5133274;27;20228;-78
2021/08/10 14:36:29;;;;;;;1.00;0.65;;;;;;;;;;5133349;27;20228;-78
2021/08/10 14:38:56;;;;;;;0.80;0.70;;;;;;;;;;5133790;27;20260;-79
2021/08/10 14:41:23;;;;;;;1.30;0.75;;;;;;;;;;5133623;27;20232;-78
2021/08/10 14:43:50;;;;;;;1.10;0.60;;;;;;;;;;5133958;27;20284;-78
2021/08/10 14:46:19;;;;;;;1.50;0.80;;;;;;;;;;5133484;27;20283;-79